createdAt,value
2023-02-15T00:02:03.131Z,20.92
2023-02-15T00:04:47.747Z,21.52
2023-02-15T00:07:16.131Z,20.73
2023-02-15T00:12:10.774Z,18.02
2023-02-15T00:14:37.117Z,18.67
2023-02-15T00:17:04.823Z,16.60
2023-02-15T00:19:32.198Z,17.48
2023-02-15T00:21:58.817Z,18.40
2023-02-15T00:24:25.539Z,17.90
2023-02-15T00:26:51.938Z,17.08
2023-02-15T00:29:20.424Z,19.88
2023-02-15T00:34:23.887Z,19.65
2023-02-15T00:36:50.973Z,19.55
2023-02-15T00:39:18.326Z,18.45
2023-02-15T00:41:45.477Z,17.35
2023-02-15T00:44:12.197Z,18.63
2023-02-15T00:46:38.729Z,18.67
2023-02-15T00:49:06.109Z,18.05
2023-02-15T00:51:33.502Z,17.65
2023-02-15T00:53:59.801Z,19.20
2023-02-15T00:56:26.301Z,19.40
2023-02-15T00:58:52.641Z,17.75
2023-02-15T01:01:21.167Z,18.50
2023-02-15T01:03:48.013Z,18.40
2023-02-15T01:06:16.514Z,17.80
2023-02-15T01:11:12.093Z,19.08
2023-02-15T01:13:41.191Z,18.05
2023-02-15T01:16:08.397Z,17.55
2023-02-15T01:18:35.558Z,17.25
2023-02-15T01:21:14.882Z,18.05
2023-02-15T01:23:43.049Z,17.20
2023-02-15T01:26:10.519Z,18.08
2023-02-15T01:28:37.346Z,17.77
2023-02-15T01:31:12.052Z,17.80
2023-02-15T01:33:39.417Z,17.67
2023-02-15T01:36:07.311Z,19.48
2023-02-15T01:38:36.356Z,18.63
2023-02-15T01:41:23.694Z,19.60
2023-02-15T01:43:53.057Z,20.20
2023-02-15T01:46:23.482Z,17.95
2023-02-15T01:48:56.383Z,18.25
2023-02-15T01:51:26.973Z,19.00
2023-02-15T01:54:02.818Z,17.70
2023-02-15T01:56:34.268Z,17.38
2023-02-15T01:59:06.811Z,16.40
2023-02-15T02:01:33.254Z,16.48
2023-02-15T02:04:14.083Z,17.23
2023-02-15T02:06:40.970Z,17.48
2023-02-15T02:09:07.810Z,16.17
2023-02-15T02:11:35.611Z,16.70
2023-02-15T02:14:02.073Z,15.88
2023-02-15T02:16:31.433Z,17.25
2023-02-15T02:19:53.699Z,15.63
2023-02-15T02:22:58.023Z,17.15
2023-02-15T02:26:17.332Z,16.60
2023-02-15T02:29:05.277Z,17.70
2023-02-15T02:32:02.509Z,16.83
2023-02-15T02:34:47.372Z,16.27
2023-02-15T02:37:33.993Z,15.68
2023-02-15T02:40:14.213Z,16.83
2023-02-15T02:42:54.682Z,15.88
2023-02-15T02:45:25.881Z,15.27
2023-02-15T02:47:59.426Z,16.15
2023-02-15T02:50:30.785Z,16.00
2023-02-15T02:52:59.629Z,15.00
2023-02-15T02:55:39.868Z,15.77
2023-02-15T02:58:09.140Z,14.80
2023-02-15T03:00:43.913Z,15.48
2023-02-15T03:03:16.237Z,17.40
2023-02-15T03:05:46.000Z,16.17
2023-02-15T03:08:22.778Z,17.73
2023-02-15T03:10:53.456Z,17.02
2023-02-15T03:13:20.634Z,15.18
2023-02-15T03:16:06.343Z,15.27
2023-02-15T03:18:39.878Z,17.52
2023-02-15T03:21:10.458Z,17.02
2023-02-15T03:23:39.255Z,16.52
2023-02-15T03:26:10.463Z,17.40
2023-02-15T03:28:42.332Z,17.33
2023-02-15T03:31:11.067Z,16.30
2023-02-15T03:33:45.544Z,18.05
2023-02-15T03:36:26.635Z,15.45
2023-02-15T03:39:17.266Z,17.70
2023-02-15T03:41:51.338Z,17.33
2023-02-15T03:44:28.015Z,17.67
2023-02-15T03:47:16.831Z,17.05
2023-02-15T03:49:48.639Z,18.23
2023-02-15T03:52:16.957Z,16.80
2023-02-15T03:54:44.633Z,15.82
2023-02-15T03:57:36.360Z,15.25
2023-02-15T04:00:27.454Z,16.88
2023-02-15T04:03:16.584Z,15.27
2023-02-15T04:05:44.715Z,13.63
2023-02-15T04:08:13.081Z,16.38
2023-02-15T04:10:56.913Z,16.00
2023-02-15T04:13:30.595Z,16.23
2023-02-15T04:16:07.348Z,16.52
2023-02-15T04:18:55.846Z,16.67
2023-02-15T04:21:42.331Z,16.15
2023-02-15T04:24:28.199Z,16.42
2023-02-15T04:26:55.500Z,14.80
2023-02-15T04:29:23.045Z,15.43
2023-02-15T04:31:50.487Z,15.30
2023-02-15T04:34:17.169Z,16.20
2023-02-15T04:36:45.245Z,15.57
2023-02-15T04:39:14.787Z,14.90
2023-02-15T04:41:41.511Z,15.48
2023-02-15T04:44:10.956Z,16.48
2023-02-15T04:49:04.927Z,15.80
2023-02-15T04:51:31.660Z,14.57
2023-02-15T04:53:58.051Z,14.20
2023-02-15T04:56:24.446Z,17.20
2023-02-15T04:58:51.010Z,16.08
2023-02-15T05:01:18.436Z,16.15
2023-02-15T05:03:44.914Z,16.87
2023-02-15T05:06:11.285Z,15.98
2023-02-15T05:08:37.936Z,16.20
2023-02-15T05:11:04.544Z,16.75
2023-02-15T05:13:31.157Z,15.90
2023-02-15T05:15:57.675Z,14.80
2023-02-15T05:18:24.185Z,15.60
2023-02-15T05:20:50.693Z,16.02
2023-02-15T05:23:17.314Z,16.05
2023-02-15T05:26:10.129Z,16.75
2023-02-15T05:28:38.134Z,16.48
2023-02-15T05:31:18.099Z,16.17
2023-02-15T05:33:45.438Z,15.38
2023-02-15T05:36:12.138Z,15.63
2023-02-15T05:38:39.511Z,16.63
2023-02-15T05:41:10.470Z,15.18
2023-02-15T05:43:37.915Z,15.98
2023-02-15T05:46:06.717Z,14.43
2023-02-15T05:48:33.970Z,16.40
2023-02-15T05:51:05.440Z,16.60
2023-02-15T05:53:34.858Z,15.65
2023-02-15T05:56:03.633Z,16.42
2023-02-15T05:58:39.718Z,16.80
2023-02-15T06:01:13.751Z,15.48
2023-02-15T06:03:40.342Z,15.32
2023-02-15T06:06:07.595Z,18.27
2023-02-15T06:08:35.595Z,17.75
2023-02-15T06:11:02.341Z,16.38
2023-02-15T06:13:29.353Z,16.92
2023-02-15T06:15:56.002Z,16.25
2023-02-15T06:18:22.518Z,15.52
2023-02-15T06:20:49.615Z,14.82
2023-02-15T06:23:16.306Z,16.83
2023-02-15T06:25:42.972Z,16.30
2023-02-15T06:28:09.296Z,15.77
2023-02-15T06:30:35.921Z,19.33
2023-02-15T06:33:02.302Z,16.92
2023-02-15T06:35:28.939Z,18.42
2023-02-15T06:37:55.542Z,16.83
2023-02-15T06:40:22.029Z,18.90
2023-02-15T06:42:50.025Z,16.65
2023-02-15T06:45:16.643Z,17.77
2023-02-15T06:47:44.006Z,17.75
2023-02-15T06:50:11.436Z,16.17
2023-02-15T06:52:37.834Z,18.20
2023-02-15T06:55:04.487Z,17.40
2023-02-15T06:57:31.002Z,18.58
2023-02-15T06:59:59.292Z,19.50
2023-02-15T07:02:25.790Z,17.75
2023-02-15T07:04:52.429Z,16.85
2023-02-15T07:07:18.779Z,17.50
2023-02-15T07:09:45.160Z,17.10
2023-02-15T07:12:30.252Z,18.60
2023-02-15T07:14:57.070Z,18.90
2023-02-15T07:17:39.007Z,19.25
2023-02-15T07:20:08.780Z,19.02
2023-02-15T07:22:37.378Z,19.33
2023-02-15T07:25:05.554Z,19.02
2023-02-15T07:27:32.868Z,17.40
2023-02-15T07:30:00.459Z,17.52
2023-02-15T07:32:31.704Z,20.38
2023-02-15T07:34:58.467Z,18.52
2023-02-15T07:37:26.280Z,17.50
2023-02-15T07:39:53.072Z,20.10
2023-02-15T07:42:20.947Z,18.35
2023-02-15T07:44:50.380Z,19.55
2023-02-15T07:47:17.004Z,19.60
2023-02-15T07:49:43.519Z,20.70
2023-02-15T07:52:09.923Z,20.48
2023-02-15T07:54:36.618Z,20.85
2023-02-15T07:57:03.241Z,20.17
2023-02-15T07:59:29.890Z,18.80
2023-02-15T08:01:57.370Z,18.42
2023-02-15T08:04:24.332Z,18.52
2023-02-15T08:06:54.256Z,20.65
2023-02-15T08:09:21.495Z,19.60
2023-02-15T08:11:48.187Z,19.75
2023-02-15T08:14:17.398Z,21.00
2023-02-15T08:16:48.273Z,20.60
2023-02-15T08:19:19.292Z,20.58
2023-02-15T08:21:48.263Z,21.60
2023-02-15T08:24:16.233Z,20.58
2023-02-15T08:26:43.727Z,23.38
2023-02-15T08:29:10.527Z,20.95
2023-02-15T08:31:38.510Z,22.40
2023-02-15T08:34:05.841Z,22.00
2023-02-15T08:36:34.837Z,22.65
2023-02-15T08:39:04.023Z,21.05
2023-02-15T08:41:37.625Z,22.08
2023-02-15T08:44:08.593Z,22.98
2023-02-15T08:46:37.446Z,26.65
2023-02-15T08:49:05.680Z,24.58
2023-02-15T08:51:35.150Z,23.65
2023-02-15T08:54:06.785Z,22.80
2023-02-15T08:56:36.074Z,23.30
2023-02-15T08:59:03.457Z,23.00
2023-02-15T09:01:32.183Z,23.85
2023-02-15T09:04:05.065Z,22.08
2023-02-15T09:06:31.773Z,23.25
2023-02-15T09:08:58.346Z,24.20
2023-02-15T09:11:28.604Z,24.00
2023-02-15T09:14:01.564Z,23.25
2023-02-15T09:16:30.455Z,24.08
2023-02-15T09:18:58.935Z,24.95
2023-02-15T09:21:26.920Z,24.08
2023-02-15T09:24:01.989Z,23.48
2023-02-15T09:26:30.926Z,22.42
2023-02-15T09:29:01.624Z,24.15
2023-02-15T09:31:30.963Z,23.95
2023-02-15T09:34:00.044Z,22.85
2023-02-15T09:36:29.321Z,24.58
2023-02-15T09:38:58.408Z,24.15
2023-02-15T09:41:43.576Z,23.17
2023-02-15T09:44:25.212Z,22.73
2023-02-15T09:47:21.047Z,24.83
2023-02-15T09:50:24.831Z,24.05
2023-02-15T09:53:16.181Z,23.70
2023-02-15T09:55:52.289Z,25.15
2023-02-15T09:59:06.886Z,23.42
2023-02-15T10:01:40.622Z,24.05
2023-02-15T10:04:41.447Z,23.70
2023-02-15T10:07:39.437Z,21.30
2023-02-15T10:10:41.235Z,22.83
2023-02-15T10:13:46.367Z,21.20
2023-02-15T10:17:03.420Z,20.08
2023-02-15T10:20:20.662Z,18.43
2023-02-15T10:22:53.092Z,18.93
2023-02-15T10:25:36.561Z,18.55
2023-02-15T10:28:07.431Z,17.75
2023-02-15T10:30:45.946Z,17.92
2023-02-15T10:33:37.055Z,17.17
2023-02-15T10:36:06.454Z,16.50
2023-02-15T10:38:55.564Z,17.67
2023-02-15T10:41:35.431Z,18.33
2023-02-15T10:44:41.414Z,18.17
2023-02-15T10:47:31.705Z,17.33
2023-02-15T10:50:01.128Z,16.50
2023-02-15T10:52:56.613Z,17.63
2023-02-15T10:55:53.081Z,16.92
2023-02-15T10:58:41.643Z,16.65
2023-02-15T11:01:31.724Z,16.23
2023-02-15T11:04:26.143Z,16.10
2023-02-15T11:07:00.984Z,16.17
2023-02-15T11:09:39.681Z,16.88
2023-02-15T11:12:12.620Z,15.35
2023-02-15T11:14:55.111Z,17.17
2023-02-15T11:17:36.362Z,15.43
2023-02-15T11:20:23.906Z,16.00
2023-02-15T11:22:52.057Z,16.13
2023-02-15T11:25:23.293Z,15.60
2023-02-15T11:27:51.357Z,14.27
2023-02-15T11:30:24.483Z,15.90
2023-02-15T11:32:58.071Z,15.18
2023-02-15T11:35:51.882Z,14.73
2023-02-15T11:38:32.307Z,14.07
2023-02-15T11:41:20.854Z,14.27
2023-02-15T11:44:12.182Z,14.20
2023-02-15T11:46:39.315Z,14.25
2023-02-15T11:49:27.183Z,14.40
2023-02-15T11:51:54.442Z,13.25
2023-02-15T11:54:27.105Z,14.35
2023-02-15T11:56:54.256Z,13.45
2023-02-15T11:59:30.913Z,13.07
2023-02-15T12:01:57.477Z,13.70
2023-02-15T12:04:42.303Z,12.85
2023-02-15T12:07:16.901Z,12.82
2023-02-15T12:09:57.450Z,12.65
2023-02-15T12:12:27.012Z,12.00
2023-02-15T12:14:57.378Z,11.90
2023-02-15T12:17:40.520Z,12.45
2023-02-15T12:20:15.832Z,10.98
2023-02-15T12:23:03.980Z,10.93
2023-02-15T12:25:37.448Z,11.35
2023-02-15T12:28:17.773Z,11.77
2023-02-15T12:30:44.632Z,11.55
2023-02-15T12:33:24.042Z,11.18
2023-02-15T12:35:58.425Z,11.35
2023-02-15T12:38:26.481Z,11.13
2023-02-15T12:41:22.029Z,12.30
2023-02-15T12:43:48.636Z,11.88
2023-02-15T12:46:24.593Z,11.07
2023-02-15T12:49:21.344Z,11.63
2023-02-15T12:51:52.721Z,10.95
2023-02-15T12:54:37.777Z,11.57
2023-02-15T12:57:36.490Z,11.30
2023-02-15T13:00:21.869Z,12.15
2023-02-15T13:02:52.784Z,12.25
2023-02-15T13:05:39.479Z,12.82
2023-02-15T13:08:16.372Z,11.35
2023-02-15T13:10:54.641Z,13.05
2023-02-15T13:13:25.299Z,12.05
2023-02-15T13:15:55.074Z,12.80
2023-02-15T13:18:31.878Z,12.63
2023-02-15T13:21:13.546Z,12.63
2023-02-15T13:23:49.289Z,13.10
2023-02-15T13:26:23.533Z,12.43
2023-02-15T13:28:54.450Z,12.23
2023-02-15T13:31:24.640Z,12.82
2023-02-15T13:33:56.062Z,10.77
2023-02-15T13:36:45.358Z,10.80
2023-02-15T13:39:22.126Z,10.88
2023-02-15T13:42:06.857Z,10.18
2023-02-15T13:44:52.890Z,8.30
2023-02-15T13:47:51.333Z,9.02
2023-02-15T13:50:37.204Z,8.00
2023-02-15T13:53:23.963Z,9.45
2023-02-15T13:56:06.721Z,8.63
2023-02-15T13:58:53.990Z,7.97
2023-02-15T14:01:32.111Z,8.23
2023-02-15T14:04:15.123Z,8.40
2023-02-15T14:06:50.961Z,8.10
2023-02-15T14:09:44.084Z,8.57
2023-02-15T14:12:34.222Z,7.53
2023-02-15T14:15:29.210Z,8.27
2023-02-15T14:18:16.129Z,8.00
2023-02-15T14:20:46.685Z,8.70
2023-02-15T14:23:30.626Z,8.50
2023-02-15T14:26:23.204Z,8.13
2023-02-15T14:29:12.568Z,9.13
2023-02-15T14:31:47.013Z,9.55
2023-02-15T14:34:31.321Z,9.88
2023-02-15T14:36:58.753Z,8.75
2023-02-15T14:39:55.761Z,8.90
2023-02-15T14:42:32.109Z,9.13
2023-02-15T14:45:06.195Z,9.52
2023-02-15T14:47:39.547Z,9.43
2023-02-15T14:50:46.198Z,9.50
2023-02-15T14:53:28.661Z,8.43
2023-02-15T14:56:18.962Z,10.27
2023-02-15T14:58:52.510Z,8.95
2023-02-15T15:01:33.780Z,8.88
2023-02-15T15:04:05.465Z,8.15
2023-02-15T15:06:38.366Z,8.60
2023-02-15T15:09:20.845Z,9.18
2023-02-15T15:11:49.261Z,8.57
2023-02-15T15:14:35.619Z,9.10
2023-02-15T15:17:06.783Z,8.15
2023-02-15T15:19:52.834Z,8.45
2023-02-15T15:22:26.760Z,8.95
2023-02-15T15:25:05.622Z,9.30
2023-02-15T15:27:54.089Z,8.48
2023-02-15T15:30:23.509Z,9.48
2023-02-15T15:32:56.056Z,9.20
2023-02-15T15:35:31.147Z,9.00
2023-02-15T15:38:16.203Z,9.30
2023-02-15T15:41:24.564Z,9.80
2023-02-15T15:44:09.474Z,9.27
2023-02-15T15:47:10.444Z,9.25
2023-02-15T15:49:38.997Z,10.18
2023-02-15T15:54:43.912Z,8.60
2023-02-15T15:57:40.208Z,9.68
2023-02-15T16:00:31.697Z,9.43
2023-02-15T16:02:58.320Z,9.82
2023-02-15T16:05:24.920Z,11.02
2023-02-15T16:07:51.468Z,10.80
2023-02-15T16:10:28.967Z,9.20
2023-02-15T16:12:56.540Z,9.25
2023-02-15T16:15:36.283Z,8.60
2023-02-15T16:18:03.215Z,10.93
2023-02-15T16:20:36.839Z,10.00
2023-02-15T16:23:21.410Z,9.50
2023-02-15T16:26:19.245Z,10.65
2023-02-15T16:28:53.673Z,9.98
2023-02-15T16:31:23.252Z,10.30
2023-02-15T16:33:54.379Z,10.82
2023-02-15T16:36:28.699Z,10.63
2023-02-15T16:38:58.327Z,9.32
2023-02-15T16:41:29.948Z,9.80
2023-02-15T16:44:13.973Z,10.73
2023-02-15T16:46:44.541Z,12.10
2023-02-15T16:49:23.974Z,12.05
2023-02-15T16:52:01.159Z,10.77
2023-02-15T16:54:29.996Z,11.18
2023-02-15T16:56:59.797Z,11.48
2023-02-15T16:59:40.111Z,11.77
2023-02-15T17:02:23.611Z,12.18
2023-02-15T17:05:14.628Z,12.02
2023-02-15T17:07:43.628Z,10.73
2023-02-15T17:10:37.167Z,11.27
2023-02-15T17:13:11.211Z,10.10
2023-02-15T17:15:40.682Z,11.43
2023-02-15T17:18:22.710Z,10.43
2023-02-15T17:20:53.284Z,11.55
2023-02-15T17:23:31.528Z,9.88
2023-02-15T17:26:01.529Z,11.35
2023-02-15T17:28:31.458Z,10.15
2023-02-15T17:30:59.409Z,9.85
2023-02-15T17:33:33.857Z,11.13
2023-02-15T17:36:16.907Z,12.75
2023-02-15T17:38:58.367Z,13.02
2023-02-15T17:41:24.948Z,13.95
2023-02-15T17:43:51.377Z,12.63
2023-02-15T17:46:19.824Z,13.48
2023-02-15T17:48:49.064Z,13.18
2023-02-15T17:51:17.086Z,12.82
2023-02-15T17:54:06.798Z,12.25
2023-02-15T17:56:37.982Z,12.23
2023-02-15T17:59:08.071Z,14.32
2023-02-15T18:01:55.945Z,14.05
2023-02-15T18:04:41.743Z,12.82
2023-02-15T18:07:28.945Z,12.50
2023-02-15T18:10:14.034Z,12.15
2023-02-15T18:12:40.798Z,12.25
2023-02-15T18:15:10.896Z,13.48
2023-02-15T18:17:42.661Z,12.48
2023-02-15T18:20:24.232Z,12.73
2023-02-15T18:22:52.165Z,12.93
2023-02-15T18:25:21.104Z,14.50
2023-02-15T18:27:47.466Z,14.05
2023-02-15T18:30:15.985Z,14.27
2023-02-15T18:35:16.470Z,14.32
2023-02-15T18:37:45.370Z,13.68
2023-02-15T18:40:23.625Z,14.40
2023-02-15T18:42:50.084Z,14.75
2023-02-15T18:45:25.211Z,15.45
2023-02-15T18:47:51.694Z,15.65
2023-02-15T18:50:20.824Z,15.68
2023-02-15T18:52:50.901Z,15.93
2023-02-15T18:55:32.436Z,15.77
2023-02-15T18:57:59.412Z,16.23
2023-02-15T19:00:33.924Z,16.77
2023-02-15T19:03:02.844Z,16.38
2023-02-15T19:05:31.795Z,15.13
2023-02-15T19:08:01.546Z,14.95
2023-02-15T19:10:31.187Z,15.38
2023-02-15T19:12:57.838Z,15.77
2023-02-15T19:15:30.686Z,15.23
2023-02-15T19:17:57.405Z,14.05
2023-02-15T19:20:27.965Z,14.48
2023-02-15T19:22:56.402Z,13.70
2023-02-15T19:25:28.346Z,14.25
2023-02-15T19:27:56.273Z,15.77
2023-02-15T19:30:30.095Z,17.73
2023-02-15T19:32:58.525Z,22.20
2023-02-15T19:35:28.967Z,20.33
2023-02-15T19:38:00.366Z,19.55
2023-02-15T19:40:30.865Z,21.02
2023-02-15T19:42:59.726Z,21.35
2023-02-15T19:45:28.665Z,20.25
2023-02-15T19:47:55.230Z,28.65
2023-02-15T19:50:25.990Z,28.08
2023-02-15T19:52:54.409Z,25.92
2023-02-15T19:55:25.493Z,22.08
2023-02-15T19:57:53.057Z,20.42
2023-02-15T20:00:22.802Z,18.63
2023-02-15T20:02:49.606Z,18.67
2023-02-15T20:05:16.125Z,19.10
2023-02-15T20:07:47.002Z,18.38
2023-02-15T20:10:19.945Z,17.10
2023-02-15T20:12:47.582Z,17.10
2023-02-15T20:15:27.592Z,15.57
2023-02-15T20:17:54.288Z,17.98
2023-02-15T20:20:26.914Z,17.52
2023-02-15T20:22:55.265Z,19.90
2023-02-15T20:25:26.817Z,19.83
2023-02-15T20:27:53.838Z,18.55
2023-02-15T20:30:22.204Z,19.23
2023-02-15T20:32:49.021Z,19.02
2023-02-15T20:35:19.369Z,18.23
2023-02-15T20:37:47.708Z,19.70
2023-02-15T20:40:27.829Z,19.27
2023-02-15T20:42:56.284Z,19.70
2023-02-15T20:45:29.147Z,19.42
2023-02-15T20:47:56.009Z,18.70
2023-02-15T20:50:34.057Z,18.20
2023-02-15T20:53:02.589Z,17.80
2023-02-15T20:57:57.958Z,17.20
2023-02-15T21:00:31.163Z,18.73
2023-02-15T21:02:59.852Z,17.60
2023-02-15T21:05:33.130Z,18.55
2023-02-15T21:08:00.429Z,18.58
2023-02-15T21:10:33.211Z,18.08
2023-02-15T21:13:01.174Z,19.15
2023-02-15T21:15:33.648Z,18.77
2023-02-15T21:18:06.201Z,19.48
2023-02-15T21:20:35.304Z,20.60
2023-02-15T21:23:05.031Z,20.77
2023-02-15T21:25:38.151Z,22.63
2023-02-15T21:28:09.786Z,21.75
2023-02-15T21:30:36.176Z,21.30
2023-02-15T21:33:02.851Z,22.25
2023-02-15T21:35:29.412Z,20.65
2023-02-15T21:37:56.262Z,21.55
2023-02-15T21:40:28.954Z,19.90
2023-02-15T21:43:14.695Z,18.52
2023-02-15T21:45:59.952Z,19.38
2023-02-15T21:48:26.372Z,20.58
2023-02-15T21:51:11.516Z,18.38
2023-02-15T21:53:43.719Z,20.60
2023-02-15T21:56:13.811Z,20.08
2023-02-15T21:58:40.284Z,21.30
2023-02-15T22:01:07.423Z,22.83
2023-02-15T22:03:38.107Z,23.45
2023-02-15T22:06:08.398Z,23.88
2023-02-15T22:08:34.953Z,22.15
2023-02-15T22:11:01.749Z,23.33
2023-02-15T22:13:31.735Z,21.42
2023-02-15T22:15:58.690Z,21.33
2023-02-15T22:18:28.238Z,21.92
2023-02-15T22:20:55.687Z,22.20
2023-02-15T22:23:23.135Z,20.65
2023-02-15T22:25:56.029Z,22.13
2023-02-15T22:28:43.467Z,22.15
2023-02-15T22:31:16.403Z,22.77
2023-02-15T22:33:44.760Z,22.45
2023-02-15T22:36:23.412Z,20.92
2023-02-15T22:38:49.903Z,22.02
2023-02-15T22:41:17.133Z,22.02
2023-02-15T22:43:46.123Z,21.65
2023-02-15T22:46:19.049Z,20.27
2023-02-15T22:48:50.081Z,20.30
2023-02-15T22:51:19.942Z,19.58
2023-02-15T22:53:49.418Z,22.02
2023-02-15T22:56:20.019Z,22.20
2023-02-15T22:58:49.404Z,22.17
2023-02-15T23:01:29.669Z,21.85
2023-02-15T23:03:56.417Z,22.98
2023-02-15T23:06:22.896Z,19.95
2023-02-15T23:08:49.480Z,22.88
2023-02-15T23:11:16.911Z,23.63
2023-02-15T23:13:43.246Z,23.90
2023-02-15T23:16:15.638Z,22.35
2023-02-15T23:18:44.140Z,22.63
2023-02-15T23:21:20.696Z,23.50
2023-02-15T23:23:50.387Z,22.65
2023-02-15T23:26:23.419Z,21.73
2023-02-15T23:28:51.516Z,22.08
2023-02-15T23:31:27.372Z,22.45
2023-02-15T23:33:54.834Z,21.00
2023-02-15T23:36:36.795Z,21.83
2023-02-15T23:39:41.834Z,22.38
2023-02-15T23:42:13.901Z,21.27
2023-02-15T23:44:42.938Z,21.83
2023-02-15T23:47:20.715Z,20.90
2023-02-15T23:49:47.486Z,21.92
2023-02-15T23:52:13.991Z,21.77
2023-02-15T23:54:40.346Z,21.88
2023-02-15T23:57:06.918Z,21.90
2023-02-15T23:59:33.279Z,21.85
